sensor_id;sensor_type;location;lat;lon;timestamp;pressure;altitude;pressure_sealevel;temperature;humidity
59608;BME280;45426;44.726;10.390;2023-04-19T00:00:18;100683.25;;;10.06;100.00
59608;BME280;45426;44.726;10.390;2023-04-19T00:02:46;100683.06;;;10.20;100.00
59608;BME280;45426;44.726;10.390;2023-04-19T00:05:14;100682.88;;;10.34;100.00
59608;BME280;45426;44.726;10.390;2023-04-19T00:07:39;100682.75;;;10.13;100.00
59608;BME280;45426;44.726;10.390;2023-04-19T00:10:14;100678.91;;;10.14;100.00
59608;BME280;45426;44.726;10.390;2023-04-19T00:12:42;100674.44;;;10.18;100.00
59608;BME280;45426;44.726;10.390;2023-04-19T00:15:08;100669.13;;;10.39;100.00
59608;BME280;45426;44.726;10.390;2023-04-19T00:17:33;100660.84;;;10.74;100.00
59608;BME280;45426;44.726;10.390;2023-04-19T00:19:59;100667.25;;;10.69;100.00
59608;BME280;45426;44.726;10.390;2023-04-19T00:22:25;100659.94;;;10.61;100.00
59608;BME280;45426;44.726;10.390;2023-04-19T00:24:51;100654.63;;;10.74;100.00
59608;BME280;45426;44.726;10.390;2023-04-19T00:27:17;100655.63;;;10.90;100.00
59608;BME280;45426;44.726;10.390;2023-04-19T00:29:45;100652.84;;;10.78;100.00
59608;BME280;45426;44.726;10.390;2023-04-19T00:32:11;100658.81;;;10.92;100.00
59608;BME280;45426;44.726;10.390;2023-04-19T00:34:36;100655.22;;;10.79;100.00
59608;BME280;45426;44.726;10.390;2023-04-19T00:37:02;100652.66;;;10.83;100.00
59608;BME280;45426;44.726;10.390;2023-04-19T00:39:30;100642.28;;;11.27;100.00
59608;BME280;45426;44.726;10.390;2023-04-19T00:41:56;100643.69;;;11.54;100.00
59608;BME280;45426;44.726;10.390;2023-04-19T00:44:22;100650.69;;;11.76;100.00
59608;BME280;45426;44.726;10.390;2023-04-19T00:46:47;100645.56;;;11.41;100.00
59608;BME280;45426;44.726;10.390;2023-04-19T00:49:14;100649.84;;;11.00;100.00
59608;BME280;45426;44.726;10.390;2023-04-19T00:51:40;100653.88;;;10.64;100.00
59608;BME280;45426;44.726;10.390;2023-04-19T00:54:08;100652.63;;;10.53;100.00
59608;BME280;45426;44.726;10.390;2023-04-19T00:56:34;100651.91;;;10.74;100.00
59608;BME280;45426;44.726;10.390;2023-04-19T00:59:00;100658.94;;;10.19;100.00
59608;BME280;45426;44.726;10.390;2023-04-19T01:01:26;100653.66;;;10.14;100.00
59608;BME280;45426;44.726;10.390;2023-04-19T01:03:55;100650.16;;;10.13;100.00
59608;BME280;45426;44.726;10.390;2023-04-19T01:06:20;100653.41;;;9.98;100.00
59608;BME280;45426;44.726;10.390;2023-04-19T01:08:47;100652.63;;;9.62;100.00
59608;BME280;45426;44.726;10.390;2023-04-19T01:11:12;100650.56;;;9.68;100.00
59608;BME280;45426;44.726;10.390;2023-04-19T01:13:41;100655.00;;;9.81;100.00
59608;BME280;45426;44.726;10.390;2023-04-19T01:16:09;100656.00;;;9.50;100.00
59608;BME280;45426;44.726;10.390;2023-04-19T01:18:37;100650.72;;;9.37;100.00
59608;BME280;45426;44.726;10.390;2023-04-19T01:21:05;100649.25;;;9.22;100.00
59608;BME280;45426;44.726;10.390;2023-04-19T01:23:31;100651.47;;;9.02;100.00
59608;BME280;45426;44.726;10.390;2023-04-19T01:25:57;100651.34;;;9.16;100.00
59608;BME280;45426;44.726;10.390;2023-04-19T01:28:22;100654.38;;;9.15;100.00
59608;BME280;45426;44.726;10.390;2023-04-19T01:30:50;100648.16;;;9.05;100.00
59608;BME280;45426;44.726;10.390;2023-04-19T01:33:18;100646.72;;;9.17;100.00
59608;BME280;45426;44.726;10.390;2023-04-19T01:35:43;100642.97;;;8.86;100.00
59608;BME280;45426;44.726;10.390;2023-04-19T01:38:11;100651.84;;;9.27;100.00
59608;BME280;45426;44.726;10.390;2023-04-19T01:40:36;100640.19;;;9.18;100.00
59608;BME280;45426;44.726;10.390;2023-04-19T01:43:02;100635.56;;;9.62;100.00
59608;BME280;45426;44.726;10.390;2023-04-19T01:45:27;100641.47;;;9.55;100.00
59608;BME280;45426;44.726;10.390;2023-04-19T01:47:53;100632.84;;;9.70;100.00
59608;BME280;45426;44.726;10.390;2023-04-19T01:50:20;100631.41;;;9.73;100.00
59608;BME280;45426;44.726;10.390;2023-04-19T01:52:46;100631.25;;;9.69;100.00
59608;BME280;45426;44.726;10.390;2023-04-19T01:55:11;100625.22;;;9.20;100.00
59608;BME280;45426;44.726;10.390;2023-04-19T01:57:37;100625.66;;;9.31;100.00
59608;BME280;45426;44.726;10.390;2023-04-19T02:00:03;100623.69;;;8.79;100.00
59608;BME280;45426;44.726;10.390;2023-04-19T02:02:28;100622.75;;;8.84;100.00
59608;BME280;45426;44.726;10.390;2023-04-19T02:04:54;100623.09;;;9.08;100.00
59608;BME280;45426;44.726;10.390;2023-04-19T02:07:19;100620.72;;;9.16;100.00
59608;BME280;45426;44.726;10.390;2023-04-19T02:09:45;100613.72;;;9.58;100.00
59608;BME280;45426;44.726;10.390;2023-04-19T02:12:10;100621.81;;;9.84;100.00
59608;BME280;45426;44.726;10.390;2023-04-19T02:14:36;100617.19;;;9.85;100.00
59608;BME280;45426;44.726;10.390;2023-04-19T02:17:04;100621.53;;;9.60;100.00
59608;BME280;45426;44.726;10.390;2023-04-19T02:19:29;100615.59;;;9.84;100.00
59608;BME280;45426;44.726;10.390;2023-04-19T02:21:55;100612.25;;;9.69;100.00
59608;BME280;45426;44.726;10.390;2023-04-19T02:24:23;100605.25;;;9.60;100.00
59608;BME280;45426;44.726;10.390;2023-04-19T02:26:49;100607.47;;;9.84;100.00
59608;BME280;45426;44.726;10.390;2023-04-19T02:29:17;100609.88;;;9.77;100.00
59608;BME280;45426;44.726;10.390;2023-04-19T02:31:43;100607.16;;;9.77;100.00
59608;BME280;45426;44.726;10.390;2023-04-19T02:34:10;100606.66;;;9.83;100.00
59608;BME280;45426;44.726;10.390;2023-04-19T02:36:36;100607.63;;;9.70;100.00
59608;BME280;45426;44.726;10.390;2023-04-19T02:39:02;100611.75;;;9.76;100.00
59608;BME280;45426;44.726;10.390;2023-04-19T02:41:27;100611.59;;;9.81;100.00
59608;BME280;45426;44.726;10.390;2023-04-19T02:43:53;100601.91;;;10.27;100.00
59608;BME280;45426;44.726;10.390;2023-04-19T02:46:18;100606.97;;;10.46;100.00
59608;BME280;45426;44.726;10.390;2023-04-19T02:48:46;100602.69;;;10.37;100.00
59608;BME280;45426;44.726;10.390;2023-04-19T02:51:15;100605.72;;;10.26;100.00
59608;BME280;45426;44.726;10.390;2023-04-19T02:53:41;100610.84;;;10.66;100.00
59608;BME280;45426;44.726;10.390;2023-04-19T02:56:09;100601.25;;;10.69;100.00
59608;BME280;45426;44.726;10.390;2023-04-19T02:58:37;100604.28;;;10.67;100.00
59608;BME280;45426;44.726;10.390;2023-04-19T03:01:08;100598.31;;;9.97;100.00
59608;BME280;45426;44.726;10.390;2023-04-19T03:03:33;100600.47;;;9.22;100.00
59608;BME280;45426;44.726;10.390;2023-04-19T03:05:59;100607.34;;;9.19;100.00
59608;BME280;45426;44.726;10.390;2023-04-19T03:08:24;100609.22;;;9.01;100.00
59608;BME280;45426;44.726;10.390;2023-04-19T03:10:50;100606.81;;;8.91;100.00
59608;BME280;45426;44.726;10.390;2023-04-19T03:13:15;100615.69;;;8.65;100.00
59608;BME280;45426;44.726;10.390;2023-04-19T03:15:41;100606.38;;;9.24;100.00
59608;BME280;45426;44.726;10.390;2023-04-19T03:18:09;100603.28;;;9.95;100.00
59608;BME280;45426;44.726;10.390;2023-04-19T03:20:35;100597.94;;;10.16;100.00
59608;BME280;45426;44.726;10.390;2023-04-19T03:23:00;100604.75;;;9.84;100.00
59608;BME280;45426;44.726;10.390;2023-04-19T03:25:26;100605.25;;;9.07;100.00
59608;BME280;45426;44.726;10.390;2023-04-19T03:27:52;100606.84;;;9.08;100.00
59608;BME280;45426;44.726;10.390;2023-04-19T03:30:17;100606.50;;;8.84;100.00
59608;BME280;45426;44.726;10.390;2023-04-19T03:32:46;100607.97;;;9.42;100.00
59608;BME280;45426;44.726;10.390;2023-04-19T03:35:12;100604.00;;;9.48;100.00
59608;BME280;45426;44.726;10.390;2023-04-19T03:37:38;100610.50;;;9.82;100.00
59608;BME280;45426;44.726;10.390;2023-04-19T03:40:03;100603.91;;;10.01;100.00
59608;BME280;45426;44.726;10.390;2023-04-19T03:42:29;100602.00;;;9.93;100.00
59608;BME280;45426;44.726;10.390;2023-04-19T03:44:55;100599.28;;;10.01;100.00
59608;BME280;45426;44.726;10.390;2023-04-19T03:47:23;100602.59;;;10.07;100.00
59608;BME280;45426;44.726;10.390;2023-04-19T03:49:48;100598.72;;;10.25;100.00
59608;BME280;45426;44.726;10.390;2023-04-19T03:52:14;100600.34;;;10.09;100.00
59608;BME280;45426;44.726;10.390;2023-04-19T03:54:40;100595.94;;;9.96;100.00
59608;BME280;45426;44.726;10.390;2023-04-19T03:57:05;100587.25;;;10.11;100.00
59608;BME280;45426;44.726;10.390;2023-04-19T03:59:31;100593.63;;;10.15;100.00
59608;BME280;45426;44.726;10.390;2023-04-19T04:01:56;100595.06;;;10.21;100.00
59608;BME280;45426;44.726;10.390;2023-04-19T04:04:22;100588.50;;;10.22;100.00
59608;BME280;45426;44.726;10.390;2023-04-19T04:06:47;100589.78;;;10.25;100.00
59608;BME280;45426;44.726;10.390;2023-04-19T04:09:13;100599.28;;;10.01;100.00
59608;BME280;45426;44.726;10.390;2023-04-19T04:11:38;100594.25;;;9.56;100.00
59608;BME280;45426;44.726;10.390;2023-04-19T04:14:04;100599.72;;;8.55;100.00
59608;BME280;45426;44.726;10.390;2023-04-19T04:16:29;100602.22;;;8.43;100.00
59608;BME280;45426;44.726;10.390;2023-04-19T04:18:55;100608.00;;;8.19;100.00
59608;BME280;45426;44.726;10.390;2023-04-19T04:21:20;100600.13;;;8.80;100.00
59608;BME280;45426;44.726;10.390;2023-04-19T04:23:51;100598.59;;;8.16;100.00
59608;BME280;45426;44.726;10.390;2023-04-19T04:26:17;100605.28;;;8.50;100.00
59608;BME280;45426;44.726;10.390;2023-04-19T04:28:48;100603.63;;;8.40;100.00
59608;BME280;45426;44.726;10.390;2023-04-19T04:31:13;100601.03;;;8.66;100.00
59608;BME280;45426;44.726;10.390;2023-04-19T04:33:42;100609.44;;;8.56;100.00
59608;BME280;45426;44.726;10.390;2023-04-19T04:36:13;100614.25;;;8.59;100.00
59608;BME280;45426;44.726;10.390;2023-04-19T04:38:38;100608.00;;;8.50;100.00
59608;BME280;45426;44.726;10.390;2023-04-19T04:41:05;100614.25;;;8.59;100.00
59608;BME280;45426;44.726;10.390;2023-04-19T04:43:31;100609.78;;;8.63;100.00
59608;BME280;45426;44.726;10.390;2023-04-19T04:46:04;100607.28;;;8.76;100.00
59608;BME280;45426;44.726;10.390;2023-04-19T04:48:32;100609.88;;;9.07;100.00
59608;BME280;45426;44.726;10.390;2023-04-19T04:51:00;100611.94;;;9.53;100.00
59608;BME280;45426;44.726;10.390;2023-04-19T04:53:26;100613.22;;;9.65;100.00
59608;BME280;45426;44.726;10.390;2023-04-19T04:55:53;100608.56;;;9.83;100.00
59608;BME280;45426;44.726;10.390;2023-04-19T04:58:18;100607.50;;;9.58;100.00
59608;BME280;45426;44.726;10.390;2023-04-19T05:00:44;100610.69;;;9.60;100.00
59608;BME280;45426;44.726;10.390;2023-04-19T05:03:12;100614.81;;;9.75;100.00
59608;BME280;45426;44.726;10.390;2023-04-19T05:05:37;100600.19;;;10.14;100.00
59608;BME280;45426;44.726;10.390;2023-04-19T05:08:03;100605.41;;;10.37;100.00
59608;BME280;45426;44.726;10.390;2023-04-19T05:10:28;100610.59;;;9.95;100.00
59608;BME280;45426;44.726;10.390;2023-04-19T05:12:54;100604.63;;;9.37;100.00
59608;BME280;45426;44.726;10.390;2023-04-19T05:15:20;100610.34;;;9.35;100.00
59608;BME280;45426;44.726;10.390;2023-04-19T05:17:45;100607.00;;;9.03;100.00
59608;BME280;45426;44.726;10.390;2023-04-19T05:20:13;100606.22;;;8.94;100.00
59608;BME280;45426;44.726;10.390;2023-04-19T05:22:41;100606.81;;;8.82;100.00
59608;BME280;45426;44.726;10.390;2023-04-19T05:25:08;100614.34;;;9.11;100.00
59608;BME280;45426;44.726;10.390;2023-04-19T05:27:37;100609.91;;;9.24;100.00
59608;BME280;45426;44.726;10.390;2023-04-19T05:30:03;100611.63;;;9.64;100.00
59608;BME280;45426;44.726;10.390;2023-04-19T05:32:29;100614.19;;;9.60;100.00
59608;BME280;45426;44.726;10.390;2023-04-19T05:34:57;100610.28;;;9.96;100.00
59608;BME280;45426;44.726;10.390;2023-04-19T05:37:23;100602.22;;;9.35;100.00
59608;BME280;45426;44.726;10.390;2023-04-19T05:39:48;100611.16;;;9.44;100.00
59608;BME280;45426;44.726;10.390;2023-04-19T05:42:14;100616.41;;;9.76;100.00
59608;BME280;45426;44.726;10.390;2023-04-19T05:44:39;100612.44;;;10.29;100.00
59608;BME280;45426;44.726;10.390;2023-04-19T05:47:05;100618.28;;;10.48;100.00
59608;BME280;45426;44.726;10.390;2023-04-19T05:49:33;100616.91;;;10.72;100.00
59608;BME280;45426;44.726;10.390;2023-04-19T05:52:01;100612.09;;;11.20;100.00
59608;BME280;45426;44.726;10.390;2023-04-19T05:54:26;100618.22;;;11.92;100.00
59608;BME280;45426;44.726;10.390;2023-04-19T05:56:52;100623.50;;;12.22;100.00
59608;BME280;45426;44.726;10.390;2023-04-19T05:59:18;100619.09;;;12.42;100.00
59608;BME280;45426;44.726;10.390;2023-04-19T06:01:43;100611.41;;;11.98;100.00
59608;BME280;45426;44.726;10.390;2023-04-19T06:04:09;100608.28;;;11.88;100.00
59608;BME280;45426;44.726;10.390;2023-04-19T06:06:34;100603.75;;;11.79;100.00
59608;BME280;45426;44.726;10.390;2023-04-19T06:09:02;100602.41;;;11.85;100.00
59608;BME280;45426;44.726;10.390;2023-04-19T06:11:29;100603.50;;;11.72;100.00
59608;BME280;45426;44.726;10.390;2023-04-19T06:13:54;100597.38;;;12.09;100.00
59608;BME280;45426;44.726;10.390;2023-04-19T06:16:20;100596.16;;;12.80;100.00
59608;BME280;45426;44.726;10.390;2023-04-19T06:18:45;100596.38;;;12.87;100.00
59608;BME280;45426;44.726;10.390;2023-04-19T06:21:11;100590.22;;;13.71;100.00
59608;BME280;45426;44.726;10.390;2023-04-19T06:23:37;100593.13;;;13.10;100.00
59608;BME280;45426;44.726;10.390;2023-04-19T06:26:02;100581.44;;;14.10;100.00
59608;BME280;45426;44.726;10.390;2023-04-19T06:28:28;100587.81;;;13.70;100.00
59608;BME280;45426;44.726;10.390;2023-04-19T06:30:53;100582.34;;;14.81;100.00
59608;BME280;45426;44.726;10.390;2023-04-19T06:33:19;100582.56;;;15.08;100.00
59608;BME280;45426;44.726;10.390;2023-04-19T06:35:44;100580.97;;;14.55;100.00
59608;BME280;45426;44.726;10.390;2023-04-19T06:38:09;100576.88;;;15.36;100.00
59608;BME280;45426;44.726;10.390;2023-04-19T06:40:35;100572.47;;;16.93;100.00
59608;BME280;45426;44.726;10.390;2023-04-19T06:43:01;100581.97;;;16.23;100.00
59608;BME280;45426;44.726;10.390;2023-04-19T06:45:26;100575.59;;;17.59;100.00
59608;BME280;45426;44.726;10.390;2023-04-19T06:47:52;100562.78;;;19.51;100.00
59608;BME280;45426;44.726;10.390;2023-04-19T06:50:17;100561.13;;;22.35;100.00
59608;BME280;45426;44.726;10.390;2023-04-19T06:52:43;100561.13;;;23.96;100.00
59608;BME280;45426;44.726;10.390;2023-04-19T06:55:08;100561.00;;;22.49;100.00
59608;BME280;45426;44.726;10.390;2023-04-19T06:57:34;100563.56;;;22.29;100.00
59608;BME280;45426;44.726;10.390;2023-04-19T06:59:59;100565.78;;;23.48;100.00
59608;BME280;45426;44.726;10.390;2023-04-19T07:02:25;100558.19;;;24.07;100.00
59608;BME280;45426;44.726;10.390;2023-04-19T07:04:50;100562.56;;;23.80;100.00
59608;BME280;45426;44.726;10.390;2023-04-19T07:07:16;100560.63;;;24.72;100.00
59608;BME280;45426;44.726;10.390;2023-04-19T07:09:41;100559.16;;;26.75;100.00
59608;BME280;45426;44.726;10.390;2023-04-19T07:12:07;100562.88;;;24.80;100.00
59608;BME280;45426;44.726;10.390;2023-04-19T07:14:32;100564.63;;;29.25;100.00
59608;BME280;45426;44.726;10.390;2023-04-19T07:16:58;100559.47;;;32.54;77.85
59608;BME280;45426;44.726;10.390;2023-04-19T07:19:23;100567.53;;;29.52;91.80
59608;BME280;45426;44.726;10.390;2023-04-19T07:21:51;100568.13;;;28.37;91.13
59608;BME280;45426;44.726;10.390;2023-04-19T07:24:17;100555.53;;;29.83;82.29
59608;BME280;45426;44.726;10.390;2023-04-19T07:26:42;100561.28;;;29.79;79.53
59608;BME280;45426;44.726;10.390;2023-04-19T07:29:08;100558.22;;;31.59;76.56
59608;BME280;45426;44.726;10.390;2023-04-19T07:31:33;100555.13;;;33.22;64.80
59608;BME280;45426;44.726;10.390;2023-04-19T07:33:59;100561.94;;;28.99;62.81
59608;BME280;45426;44.726;10.390;2023-04-19T07:36:24;100546.34;;;31.64;68.19
59608;BME280;45426;44.726;10.390;2023-04-19T07:38:50;100558.13;;;28.49;68.71
59608;BME280;45426;44.726;10.390;2023-04-19T07:41:16;100549.19;;;31.12;65.73
59608;BME280;45426;44.726;10.390;2023-04-19T07:43:42;100558.53;;;30.07;64.40
59608;BME280;45426;44.726;10.390;2023-04-19T07:46:08;100552.16;;;27.64;73.20
59608;BME280;45426;44.726;10.390;2023-04-19T07:48:34;100555.28;;;25.21;100.00
59608;BME280;45426;44.726;10.390;2023-04-19T07:51:11;100545.91;;;28.33;93.54
59608;BME280;45426;44.726;10.390;2023-04-19T07:53:38;100544.69;;;28.34;83.96
59608;BME280;45426;44.726;10.390;2023-04-19T07:56:05;100556.81;;;26.57;83.06
59608;BME280;45426;44.726;10.390;2023-04-19T07:58:31;100530.06;;;32.25;73.50
59608;BME280;45426;44.726;10.390;2023-04-19T08:00:57;100543.00;;;29.56;65.26
59608;BME280;45426;44.726;10.390;2023-04-19T08:03:23;100533.06;;;30.42;88.60
59608;BME280;45426;44.726;10.390;2023-04-19T08:05:48;100541.53;;;28.67;76.03
59608;BME280;45426;44.726;10.390;2023-04-19T08:08:13;100530.50;;;32.48;66.97
59608;BME280;45426;44.726;10.390;2023-04-19T08:10:39;100535.97;;;33.26;62.74
59608;BME280;45426;44.726;10.390;2023-04-19T08:13:07;100535.63;;;33.54;62.91
59608;BME280;45426;44.726;10.390;2023-04-19T08:15:33;100540.94;;;30.99;65.26
59608;BME280;45426;44.726;10.390;2023-04-19T08:17:59;100547.31;;;28.95;71.33
59608;BME280;45426;44.726;10.390;2023-04-19T08:20:24;100541.41;;;30.05;62.79
59608;BME280;45426;44.726;10.390;2023-04-19T08:22:51;100543.16;;;30.67;66.39
59608;BME280;45426;44.726;10.390;2023-04-19T08:25:17;100539.72;;;29.98;70.15
59608;BME280;45426;44.726;10.390;2023-04-19T08:27:42;100532.41;;;28.32;84.43
59608;BME280;45426;44.726;10.390;2023-04-19T08:30:08;100543.38;;;25.41;100.00
59608;BME280;45426;44.726;10.390;2023-04-19T08:32:34;100541.28;;;24.88;100.00
59608;BME280;45426;44.726;10.390;2023-04-19T08:35:00;100538.13;;;24.22;100.00
59608;BME280;45426;44.726;10.390;2023-04-19T08:37:26;100535.34;;;23.44;100.00
59608;BME280;45426;44.726;10.390;2023-04-19T08:39:51;100535.00;;;23.12;100.00
59608;BME280;45426;44.726;10.390;2023-04-19T08:42:17;100530.31;;;23.09;100.00
59608;BME280;45426;44.726;10.390;2023-04-19T08:44:44;100531.97;;;23.60;100.00
59608;BME280;45426;44.726;10.390;2023-04-19T08:47:10;100522.50;;;22.24;100.00
59608;BME280;45426;44.726;10.390;2023-04-19T08:49:38;100524.84;;;22.25;100.00
59608;BME280;45426;44.726;10.390;2023-04-19T08:52:05;100527.34;;;20.68;100.00
59608;BME280;45426;44.726;10.390;2023-04-19T08:54:31;100514.50;;;21.84;100.00
59608;BME280;45426;44.726;10.390;2023-04-19T08:57:00;100520.25;;;22.87;100.00
59608;BME280;45426;44.726;10.390;2023-04-19T08:59:26;100511.63;;;21.99;100.00
59608;BME280;45426;44.726;10.390;2023-04-19T09:01:53;100503.03;;;23.34;100.00
59608;BME280;45426;44.726;10.390;2023-04-19T09:04:20;100510.97;;;23.01;100.00
59608;BME280;45426;44.726;10.390;2023-04-19T09:06:46;100505.50;;;22.63;100.00
59608;BME280;45426;44.726;10.390;2023-04-19T09:09:22;100501.81;;;23.08;100.00
59608;BME280;45426;44.726;10.390;2023-04-19T09:11:51;100489.69;;;22.60;100.00
59608;BME280;45426;44.726;10.390;2023-04-19T09:14:18;100503.84;;;22.32;100.00
59608;BME280;45426;44.726;10.390;2023-04-19T09:16:44;100499.88;;;21.87;100.00
59608;BME280;45426;44.726;10.390;2023-04-19T09:19:10;100492.78;;;22.32;100.00
59608;BME280;45426;44.726;10.390;2023-04-19T09:21:37;100485.59;;;23.06;100.00
59608;BME280;45426;44.726;10.390;2023-04-19T09:24:03;100497.56;;;22.96;100.00
59608;BME280;45426;44.726;10.390;2023-04-19T09:26:28;100486.56;;;23.74;100.00
59608;BME280;45426;44.726;10.390;2023-04-19T09:29:02;100473.34;;;23.04;100.00
59608;BME280;45426;44.726;10.390;2023-04-19T09:31:32;100476.84;;;22.77;100.00
59608;BME280;45426;44.726;10.390;2023-04-19T09:34:12;100465.75;;;22.46;100.00
59608;BME280;45426;44.726;10.390;2023-04-19T09:36:38;100473.66;;;22.03;100.00
59608;BME280;45426;44.726;10.390;2023-04-19T09:39:04;100468.47;;;22.50;100.00
59608;BME280;45426;44.726;10.390;2023-04-19T09:41:30;100462.94;;;22.81;100.00
59608;BME280;45426;44.726;10.390;2023-04-19T09:44:11;100457.53;;;23.04;100.00
59608;BME280;45426;44.726;10.390;2023-04-19T09:46:40;100453.97;;;23.31;100.00
59608;BME280;45426;44.726;10.390;2023-04-19T09:49:24;100458.75;;;22.35;100.00
59608;BME280;45426;44.726;10.390;2023-04-19T09:51:52;100447.19;;;23.09;100.00
59608;BME280;45426;44.726;10.390;2023-04-19T09:54:20;100444.34;;;23.39;100.00
59608;BME280;45426;44.726;10.390;2023-04-19T09:56:47;100448.84;;;23.30;100.00
59608;BME280;45426;44.726;10.390;2023-04-19T09:59:13;100443.56;;;22.81;100.00
59608;BME280;45426;44.726;10.390;2023-04-19T10:04:13;100434.94;;;22.03;100.00
59608;BME280;45426;44.726;10.390;2023-04-19T10:06:53;100430.41;;;22.58;100.00
59608;BME280;45426;44.726;10.390;2023-04-19T10:09:19;100426.84;;;22.88;100.00
59608;BME280;45426;44.726;10.390;2023-04-19T10:11:55;100427.69;;;21.75;100.00
59608;BME280;45426;44.726;10.390;2023-04-19T10:14:23;100415.47;;;23.10;100.00
59608;BME280;45426;44.726;10.390;2023-04-19T10:16:49;100415.97;;;23.04;100.00
59608;BME280;45426;44.726;10.390;2023-04-19T10:19:19;100411.34;;;22.63;100.00
59608;BME280;45426;44.726;10.390;2023-04-19T10:21:47;100417.38;;;22.20;100.00
59608;BME280;45426;44.726;10.390;2023-04-19T10:24:14;100410.53;;;21.94;100.00
59608;BME280;45426;44.726;10.390;2023-04-19T10:29:56;100401.00;;;22.67;100.00
59608;BME280;45426;44.726;10.390;2023-04-19T10:32:25;100405.16;;;22.83;100.00
59608;BME280;45426;44.726;10.390;2023-04-19T10:34:51;100395.03;;;22.38;100.00
59608;BME280;45426;44.726;10.390;2023-04-19T10:37:24;100394.06;;;22.56;100.00
59608;BME280;45426;44.726;10.390;2023-04-19T10:39:50;100392.16;;;21.73;100.00
59608;BME280;45426;44.726;10.390;2023-04-19T10:42:16;100393.56;;;21.47;100.00
59608;BME280;45426;44.726;10.390;2023-04-19T10:47:46;100374.94;;;21.96;100.00
59608;BME280;45426;44.726;10.390;2023-04-19T10:50:11;100376.94;;;21.50;100.00
59608;BME280;45426;44.726;10.390;2023-04-19T10:52:37;100373.47;;;22.26;100.00
59608;BME280;45426;44.726;10.390;2023-04-19T10:55:03;100357.25;;;22.24;100.00
59608;BME280;45426;44.726;10.390;2023-04-19T11:00:27;100356.34;;;22.35;100.00
59608;BME280;45426;44.726;10.390;2023-04-19T11:02:56;100356.94;;;22.15;100.00
59608;BME280;45426;44.726;10.390;2023-04-19T11:05:22;100356.22;;;22.11;100.00
59608;BME280;45426;44.726;10.390;2023-04-19T11:07:47;100342.53;;;21.97;100.00
59608;BME280;45426;44.726;10.390;2023-04-19T11:10:27;100337.84;;;23.13;100.00
59608;BME280;45426;44.726;10.390;2023-04-19T11:12:53;100335.97;;;23.97;100.00
59608;BME280;45426;44.726;10.390;2023-04-19T11:15:21;100328.34;;;22.60;100.00
59608;BME280;45426;44.726;10.390;2023-04-19T11:17:49;100322.50;;;23.09;100.00
59608;BME280;45426;44.726;10.390;2023-04-19T11:20:16;100319.28;;;23.34;100.00
59608;BME280;45426;44.726;10.390;2023-04-19T11:22:45;100316.69;;;23.47;100.00
59608;BME280;45426;44.726;10.390;2023-04-19T11:25:18;100311.75;;;23.58;100.00
59608;BME280;45426;44.726;10.390;2023-04-19T11:27:51;100301.09;;;24.36;100.00
59608;BME280;45426;44.726;10.390;2023-04-19T11:30:19;100311.44;;;23.96;100.00
59608;BME280;45426;44.726;10.390;2023-04-19T11:32:51;100307.06;;;23.55;100.00
59608;BME280;45426;44.726;10.390;2023-04-19T11:35:22;100298.75;;;22.53;100.00
59608;BME280;45426;44.726;10.390;2023-04-19T11:37:48;100299.47;;;21.61;100.00
59608;BME280;45426;44.726;10.390;2023-04-19T11:40:15;100292.06;;;22.20;100.00
59608;BME280;45426;44.726;10.390;2023-04-19T11:42:41;100282.88;;;22.84;100.00
59608;BME280;45426;44.726;10.390;2023-04-19T11:45:08;100284.97;;;23.28;100.00
59608;BME280;45426;44.726;10.390;2023-04-19T11:47:35;100289.03;;;24.07;100.00
59608;BME280;45426;44.726;10.390;2023-04-19T11:52:54;100272.72;;;21.51;100.00
59608;BME280;45426;44.726;10.390;2023-04-19T11:55:20;100274.56;;;21.96;100.00
59608;BME280;45426;44.726;10.390;2023-04-19T11:57:46;100271.19;;;22.15;100.00
59608;BME280;45426;44.726;10.390;2023-04-19T12:00:12;100264.94;;;22.11;100.00
59608;BME280;45426;44.726;10.390;2023-04-19T12:02:42;100260.22;;;22.66;100.00
59608;BME280;45426;44.726;10.390;2023-04-19T12:05:13;100244.31;;;22.70;100.00
59608;BME280;45426;44.726;10.390;2023-04-19T12:10:23;100242.22;;;22.54;100.00
59608;BME280;45426;44.726;10.390;2023-04-19T12:12:49;100235.59;;;22.72;100.00
59608;BME280;45426;44.726;10.390;2023-04-19T12:15:15;100237.81;;;23.71;100.00
59608;BME280;45426;44.726;10.390;2023-04-19T12:17:59;100230.03;;;24.22;100.00
59608;BME280;45426;44.726;10.390;2023-04-19T12:20:34;100219.28;;;24.25;100.00
59608;BME280;45426;44.726;10.390;2023-04-19T12:22:59;100222.59;;;23.99;100.00
59608;BME280;45426;44.726;10.390;2023-04-19T12:25:29;100222.59;;;22.92;100.00
59608;BME280;45426;44.726;10.390;2023-04-19T12:27:55;100219.56;;;22.59;100.00
59608;BME280;45426;44.726;10.390;2023-04-19T12:30:21;100214.16;;;22.52;100.00
59608;BME280;45426;44.726;10.390;2023-04-19T12:32:47;100217.38;;;23.21;100.00
59608;BME280;45426;44.726;10.390;2023-04-19T12:35:12;100201.53;;;23.22;100.00
59608;BME280;45426;44.726;10.390;2023-04-19T12:37:38;100207.94;;;23.39;100.00
59608;BME280;45426;44.726;10.390;2023-04-19T12:40:03;100195.38;;;23.94;100.00
59608;BME280;45426;44.726;10.390;2023-04-19T12:42:29;100186.28;;;24.10;100.00
59608;BME280;45426;44.726;10.390;2023-04-19T12:44:55;100185.34;;;24.17;100.00
59608;BME280;45426;44.726;10.390;2023-04-19T12:47:20;100188.38;;;23.86;100.00